createdAt,value
2016-12-07T00:00:26.289Z,1.02
2016-12-07T00:01:25.992Z,1.14
2016-12-07T00:02:26.008Z,1.13
2016-12-07T00:03:26.326Z,0.96
2016-12-07T00:04:25.717Z,0.74
2016-12-07T00:05:25.714Z,0.88
2016-12-07T00:06:26.356Z,0.68
2016-12-07T00:07:26.054Z,0.74
2016-12-07T00:08:26.375Z,0.87
2016-12-07T00:09:25.874Z,1.08
2016-12-07T00:10:26.080Z,1.17
2016-12-07T00:11:26.090Z,1.3
2016-12-07T00:12:26.104Z,1.23
2016-12-07T00:13:25.802Z,1.24
2016-12-07T00:14:25.883Z,1.35
2016-12-07T00:15:26.454Z,1.42
2016-12-07T00:16:26.151Z,1.32
2016-12-07T00:17:25.848Z,1.3
2016-12-07T00:18:25.862Z,1.16
2016-12-07T00:19:25.865Z,1.28
2016-12-07T00:20:26.197Z,1.2
2016-12-07T00:21:25.892Z,1.08
2016-12-07T00:22:26.532Z,1.17
2016-12-07T00:23:25.915Z,1.26
2016-12-07T00:24:26.555Z,1.26
2016-12-07T00:25:26.255Z,1.35
2016-12-07T00:26:26.263Z,1.4
2016-12-07T00:27:25.960Z,1.4
2016-12-07T00:28:26.285Z,1.3
2016-12-07T00:29:26.636Z,1.38
2016-12-07T00:30:26.622Z,1.31
2016-12-07T00:31:26.003Z,1.31
2016-12-07T00:32:26.643Z,1.32
2016-12-07T00:33:26.655Z,1.19
2016-12-07T00:34:26.365Z,1.32
2016-12-07T00:35:26.378Z,1.3
2016-12-07T00:36:26.374Z,1.28
2016-12-07T00:37:26.703Z,1.24
2016-12-07T00:38:26.081Z,1.26
2016-12-07T00:39:26.719Z,1.45
2016-12-07T00:40:26.420Z,1.49
2016-12-07T00:41:26.112Z,1.63
2016-12-07T00:42:26.444Z,1.62
2016-12-07T00:43:26.450Z,1.63
2016-12-07T00:44:26.464Z,1.74
2016-12-07T00:45:26.812Z,1.35
2016-12-07T00:46:26.483Z,1.35
2016-12-07T00:47:26.498Z,1.41
2016-12-07T00:48:26.506Z,1.55
2016-12-07T00:49:26.524Z,1.63
2016-12-07T00:50:26.220Z,1.77
2016-12-07T00:51:26.543Z,1.76
2016-12-07T00:52:26.561Z,1.76
2016-12-07T00:53:26.573Z,1.84
2016-12-07T00:54:26.889Z,1.62
2016-12-07T00:55:26.269Z,1.58
2016-12-07T00:56:26.595Z,1.48
2016-12-07T00:57:26.293Z,1.5
2016-12-07T00:58:26.306Z,1.38
2016-12-07T00:59:26.631Z,1.32
2016-12-07T01:00:26.642Z,1.48
2016-12-07T01:01:26.661Z,1.6
2016-12-07T01:02:26.978Z,1.71
2016-12-07T01:03:26.995Z,1.8
2016-12-07T01:04:26.377Z,1.87
2016-12-07T01:05:26.407Z,1.73
2016-12-07T01:06:26.712Z,1.67
2016-12-07T01:07:26.717Z,1.88
2016-12-07T01:08:26.415Z,1.88
2016-12-07T01:09:26.431Z,1.71
2016-12-07T01:10:26.437Z,1.7
2016-12-07T01:11:27.080Z,1.71
2016-12-07T01:12:27.093Z,1.74
2016-12-07T01:13:26.787Z,1.73
2016-12-07T01:14:26.812Z,1.73
2016-12-07T01:15:26.813Z,1.55
2016-12-07T01:16:26.508Z,1.45
2016-12-07T01:17:26.835Z,1.52
2016-12-07T01:18:26.891Z,1.6
2016-12-07T01:19:26.875Z,1.58
2016-12-07T01:20:26.889Z,1.48
2016-12-07T01:21:27.196Z,1.28
2016-12-07T01:22:26.597Z,1.22
2016-12-07T01:23:26.901Z,1.06
2016-12-07T01:24:26.914Z,1.05
2016-12-07T01:25:26.922Z,1.16
2016-12-07T01:26:26.618Z,1.24
2016-12-07T01:27:26.956Z,1.02
2016-12-07T01:28:26.954Z,1.1
2016-12-07T01:29:27.283Z,1.19
2016-12-07T01:30:26.980Z,1.08
2016-12-07T01:31:26.990Z,1.22
2016-12-07T01:32:27.028Z,1.17
2016-12-07T01:33:26.698Z,1.16
2016-12-07T01:34:27.021Z,1.24
2016-12-07T01:35:27.036Z,1.32
2016-12-07T01:36:27.052Z,1.37
2016-12-07T01:37:27.055Z,1.48
2016-12-07T01:38:27.070Z,1.45
2016-12-07T01:39:26.761Z,1.44
2016-12-07T01:40:27.092Z,1.42
2016-12-07T01:41:27.435Z,1.42
2016-12-07T01:42:27.113Z,1.52
2016-12-07T01:43:27.461Z,1.48
2016-12-07T01:44:27.457Z,1.48
2016-12-07T01:45:27.146Z,1.48
2016-12-07T01:46:27.958Z,1.58
2016-12-07T01:47:26.853Z,1.62
2016-12-07T01:48:26.867Z,1.48
2016-12-07T01:49:27.188Z,1.31
2016-12-07T01:50:27.518Z,1.32
2016-12-07T01:51:27.215Z,1.3
2016-12-07T01:52:26.908Z,1.23
2016-12-07T01:53:27.555Z,1.1
2016-12-07T01:54:27.244Z,1.05
2016-12-07T01:55:27.583Z,0.91
2016-12-07T01:56:27.280Z,1.05
2016-12-07T01:57:26.969Z,1.12
2016-12-07T01:58:26.974Z,1.06
2016-12-07T01:59:27.341Z,1.13
2016-12-07T02:00:26.993Z,1.05
2016-12-07T02:01:27.320Z,1.17
2016-12-07T02:02:27.333Z,1.26
2016-12-07T02:03:27.025Z,1.31
2016-12-07T02:04:27.354Z,1.4
2016-12-07T02:05:27.365Z,1.41
2016-12-07T02:06:27.375Z,1.35
2016-12-07T02:07:27.700Z,1.22
2016-12-07T02:08:27.396Z,1.08
2016-12-07T02:09:27.413Z,1.01
2016-12-07T02:10:27.437Z,1.06
2016-12-07T02:11:27.434Z,1.02
2016-12-07T02:12:27.147Z,1.12
2016-12-07T02:13:27.771Z,1.14
2016-12-07T02:14:27.466Z,1.19
2016-12-07T02:15:27.476Z,1.05
2016-12-07T02:16:27.486Z,0.98
2016-12-07T02:17:27.818Z,0.92
2016-12-07T02:18:27.848Z,0.95
2016-12-07T02:19:27.831Z,0.94
2016-12-07T02:20:27.845Z,0.98
2016-12-07T02:21:27.856Z,1.06
2016-12-07T02:22:27.550Z,1.06
2016-12-07T02:23:27.562Z,0.88
2016-12-07T02:24:27.577Z,0.95
2016-12-07T02:25:27.268Z,0.95
2016-12-07T02:26:27.599Z,0.88
2016-12-07T02:27:27.289Z,1.06
2016-12-07T02:28:27.297Z,0.94
2016-12-07T02:29:27.946Z,0.87
2016-12-07T02:30:27.636Z,0.88
2016-12-07T02:31:27.965Z,1.02
2016-12-07T02:32:27.657Z,0.98
2016-12-07T02:33:27.673Z,0.94
2016-12-07T02:34:27.365Z,0.87
2016-12-07T02:35:27.707Z,0.73
2016-12-07T02:36:27.712Z,0.66
2016-12-07T02:37:27.403Z,0.94
2016-12-07T02:38:28.046Z,0.92
2016-12-07T02:39:28.055Z,0.91
2016-12-07T02:40:27.748Z,0.92
2016-12-07T02:41:27.762Z,0.77
2016-12-07T02:42:27.454Z,0.8
2016-12-07T02:43:27.783Z,0.77
2016-12-07T02:44:27.476Z,0.74
2016-12-07T02:45:27.802Z,0.69
2016-12-07T02:46:27.509Z,0.59
2016-12-07T02:47:27.825Z,0.69
2016-12-07T02:48:27.836Z,0.73
2016-12-07T02:49:27.848Z,0.74
2016-12-07T02:50:27.543Z,0.84
2016-12-07T02:51:28.181Z,0.94
2016-12-07T02:52:27.891Z,0.94
2016-12-07T02:53:27.892Z,1.01
2016-12-07T02:54:28.216Z,1.12
2016-12-07T02:55:27.601Z,1.06
2016-12-07T02:56:27.606Z,1.1
2016-12-07T02:57:27.619Z,1.26
2016-12-07T02:58:27.943Z,1.17
2016-12-07T02:59:27.676Z,1.3
2016-12-07T03:00:27.981Z,1.4
2016-12-07T03:01:28.291Z,1.44
2016-12-07T03:02:27.987Z,1.49
2016-12-07T03:03:28.004Z,1.49
2016-12-07T03:04:28.014Z,1.53
2016-12-07T03:05:27.747Z,1.48
2016-12-07T03:06:28.369Z,1.49
2016-12-07T03:07:28.364Z,1.6
2016-12-07T03:08:28.054Z,1.63
2016-12-07T03:09:28.376Z,1.59
2016-12-07T03:10:27.763Z,1.49
2016-12-07T03:11:28.399Z,1.42
2016-12-07T03:12:28.096Z,1.17
2016-12-07T03:13:27.792Z,1.12
2016-12-07T03:14:28.118Z,1.24
2016-12-07T03:15:28.454Z,1.22
2016-12-07T03:16:28.138Z,1.19
2016-12-07T03:17:28.161Z,1.16
2016-12-07T03:18:28.476Z,1.26
2016-12-07T03:19:28.172Z,1.28
2016-12-07T03:20:28.268Z,1.35
2016-12-07T03:21:27.878Z,1.2
2016-12-07T03:22:28.521Z,1.19
2016-12-07T03:23:28.290Z,1.34
2016-12-07T03:24:28.253Z,1.38
2016-12-07T03:25:28.263Z,1.4
2016-12-07T03:26:28.249Z,1.48
2016-12-07T03:27:28.260Z,1.55
2016-12-07T03:28:28.590Z,1.52
2016-12-07T03:29:27.967Z,1.3
2016-12-07T03:30:28.297Z,1.4
2016-12-07T03:31:28.316Z,1.31
2016-12-07T03:32:28.329Z,1.06
2016-12-07T03:33:28.012Z,0.92
2016-12-07T03:34:28.335Z,0.88
2016-12-07T03:35:28.344Z,1.05
2016-12-07T03:36:28.358Z,1.22
2016-12-07T03:37:28.370Z,1.2
2016-12-07T03:38:28.434Z,1.1
2016-12-07T03:39:28.394Z,1.16
2016-12-07T03:40:28.403Z,1.2
2016-12-07T03:41:28.412Z,1.2
2016-12-07T03:42:28.443Z,1.32
2016-12-07T03:43:28.462Z,1.35
2016-12-07T03:44:28.129Z,1.3
2016-12-07T03:45:28.455Z,1.24
2016-12-07T03:46:28.470Z,1.31
2016-12-07T03:47:28.791Z,1.32
2016-12-07T03:48:28.824Z,1.41
2016-12-07T03:49:28.196Z,1.5
2016-12-07T03:50:28.509Z,1.49
2016-12-07T03:51:28.838Z,1.41
2016-12-07T03:52:28.530Z,1.32
2016-12-07T03:53:28.862Z,1.17
2016-12-07T03:54:28.554Z,1.13
2016-12-07T03:55:28.569Z,1.23
2016-12-07T03:56:28.891Z,1.32
2016-12-07T03:57:28.587Z,1.35
2016-12-07T03:58:28.286Z,1.38
2016-12-07T03:59:28.925Z,1.45
2016-12-07T04:00:28.617Z,1.41
2016-12-07T04:01:28.943Z,1.45
2016-12-07T04:02:28.640Z,1.34
2016-12-07T04:03:28.343Z,1.41
2016-12-07T04:04:28.978Z,1.49
2016-12-07T04:05:28.676Z,1.48
2016-12-07T04:06:28.371Z,1.32
2016-12-07T04:07:28.715Z,1.26
2016-12-07T04:08:28.386Z,1.28
2016-12-07T04:09:28.399Z,1.34
2016-12-07T04:10:28.407Z,1.2
2016-12-07T04:11:29.054Z,1.14
2016-12-07T04:12:28.432Z,1.16
2016-12-07T04:13:29.082Z,1.12
2016-12-07T04:14:29.087Z,1.16
2016-12-07T04:15:28.465Z,1.13
2016-12-07T04:16:28.791Z,1.14
2016-12-07T04:17:28.803Z,1.1
2016-12-07T04:18:28.497Z,1.14
2016-12-07T04:19:28.509Z,1.05
2016-12-07T04:20:28.516Z,1.04
2016-12-07T04:21:29.160Z,1.04
2016-12-07T04:22:28.859Z,0.96
2016-12-07T04:23:28.550Z,1.01
2016-12-07T04:24:28.585Z,1.14
2016-12-07T04:25:28.573Z,1.19
2016-12-07T04:26:29.218Z,1.14
2016-12-07T04:27:29.227Z,1.02
2016-12-07T04:28:28.924Z,0.84
2016-12-07T04:29:28.931Z,0.81
2016-12-07T04:30:29.259Z,0.99
2016-12-07T04:31:29.309Z,1.14
2016-12-07T04:32:29.277Z,0.91
2016-12-07T04:33:29.293Z,0.83
2016-12-07T04:34:28.992Z,0.7
2016-12-07T04:35:29.310Z,0.68
2016-12-07T04:36:29.325Z,0.69
2016-12-07T04:37:29.020Z,0.8
2016-12-07T04:38:29.035Z,0.91
2016-12-07T04:39:29.356Z,1.02
2016-12-07T04:40:29.046Z,1.12
2016-12-07T04:41:28.745Z,1.02
2016-12-07T04:42:28.759Z,0.87
2016-12-07T04:43:29.400Z,0.83
2016-12-07T04:44:28.778Z,0.69
2016-12-07T04:45:28.795Z,0.6
2016-12-07T04:46:28.807Z,0.77
2016-12-07T04:47:29.127Z,0.86
2016-12-07T04:48:29.452Z,0.95
2016-12-07T04:49:29.149Z,1.04
2016-12-07T04:50:28.843Z,1.02
2016-12-07T04:51:28.851Z,1.14
2016-12-07T04:52:29.180Z,0.95
2016-12-07T04:53:29.287Z,0.56
2016-12-07T04:54:29.199Z,0.32
2016-12-07T04:55:28.900Z,0.31
2016-12-07T04:56:29.220Z,0.34
2016-12-07T04:57:28.919Z,0.23
2016-12-07T04:58:28.931Z,0.26
2016-12-07T04:59:29.572Z,0.28
2016-12-07T05:00:28.949Z,0.25
2016-12-07T05:01:28.957Z,0.32
2016-12-07T05:02:28.971Z,0.47
2016-12-07T05:03:29.295Z,0.65
2016-12-07T05:04:28.989Z,0.77
2016-12-07T05:05:29.007Z,0.76
2016-12-07T05:06:29.328Z,0.47
2016-12-07T05:07:29.654Z,0.44
2016-12-07T05:08:29.350Z,0.37
2016-12-07T05:09:29.358Z,0.37
2016-12-07T05:10:29.373Z,0.52
2016-12-07T05:11:29.065Z,0.6
2016-12-07T05:12:29.081Z,0.56
2016-12-07T05:13:29.717Z,0.76
2016-12-07T05:14:29.723Z,0.63
2016-12-07T05:15:29.421Z,0.36
2016-12-07T05:16:29.433Z,0.37
2016-12-07T05:17:29.766Z,0.32
2016-12-07T05:18:29.462Z,0.41
2016-12-07T05:19:29.777Z,0.44
2016-12-07T05:20:29.389Z,0.59
2016-12-07T05:21:29.799Z,0.68
2016-12-07T05:22:29.176Z,0.76
2016-12-07T05:23:29.508Z,0.59
2016-12-07T05:24:29.516Z,0.73
2016-12-07T05:25:29.526Z,0.84
2016-12-07T05:26:29.542Z,0.73
2016-12-07T05:27:29.545Z,0.83
2016-12-07T05:28:29.897Z,0.73
2016-12-07T05:29:29.564Z,0.6
2016-12-07T05:30:29.576Z,0.4
2016-12-07T05:31:29.585Z,0.41
2016-12-07T05:32:29.606Z,0.46
2016-12-07T05:33:29.291Z,0.65
2016-12-07T05:34:29.300Z,0.73
2016-12-07T05:35:29.327Z,0.81
2016-12-07T05:36:29.639Z,0.59
2016-12-07T05:37:29.648Z,0.73
2016-12-07T05:38:29.664Z,0.83
2016-12-07T05:39:29.669Z,0.8
2016-12-07T05:40:29.362Z,0.8
2016-12-07T05:41:30.021Z,0.59
2016-12-07T05:42:30.049Z,0.73
2016-12-07T05:43:30.036Z,0.78
2016-12-07T05:44:29.724Z,0.7
2016-12-07T05:45:29.419Z,0.41
2016-12-07T05:46:29.426Z,0.36
2016-12-07T05:47:29.440Z,0.44
2016-12-07T05:48:29.446Z,0.56
2016-12-07T05:49:29.457Z,0.66
2016-12-07T05:50:29.788Z,0.73
2016-12-07T05:51:29.796Z,0.76
2016-12-07T05:52:30.120Z,0.76
2016-12-07T05:53:29.816Z,0.74
2016-12-07T05:54:29.825Z,0.74
2016-12-07T05:55:29.841Z,0.76
2016-12-07T05:56:29.852Z,0.62
2016-12-07T05:57:30.168Z,0.62
2016-12-07T05:58:29.562Z,0.6
2016-12-07T05:59:29.881Z,0.65
2016-12-07T06:00:29.576Z,0.7
2016-12-07T06:01:29.589Z,0.73
2016-12-07T06:02:29.593Z,0.62
2016-12-07T06:03:29.609Z,0.41
2016-12-07T06:04:30.240Z,0.39
2016-12-07T06:05:30.254Z,0.36
2016-12-07T06:06:29.965Z,0.11
2016-12-07T06:07:29.977Z,0.03
2016-12-07T06:08:29.655Z,0
2016-12-07T06:09:29.982Z,-0.02
2016-12-07T06:10:29.988Z,-0.15
2016-12-07T06:11:29.683Z,-0.14
2016-12-07T06:12:30.011Z,-0.14
2016-12-07T06:13:30.019Z,0.15
2016-12-07T06:14:29.713Z,0.1
2016-12-07T06:15:30.356Z,0.08
2016-12-07T06:16:30.057Z,0.12
2016-12-07T06:17:30.063Z,0.22
2016-12-07T06:18:30.072Z,0.28
2016-12-07T06:19:30.083Z,0.23
2016-12-07T06:20:30.408Z,0.25
2016-12-07T06:21:29.784Z,0.34
2016-12-07T06:22:30.422Z,0.19
2016-12-07T06:23:30.437Z,0.08
2016-12-07T06:24:29.818Z,-0.03
2016-12-07T06:25:30.143Z,-0.03
2016-12-07T06:26:30.467Z,-0.07
2016-12-07T06:27:29.848Z,0.16
2016-12-07T06:28:30.171Z,0.1
2016-12-07T06:29:29.866Z,0.28
2016-12-07T06:30:30.504Z,0.21
2016-12-07T06:31:30.222Z,0.22
2016-12-07T06:32:30.213Z,0.23
2016-12-07T06:33:29.903Z,0.11
2016-12-07T06:34:30.553Z,0.07
2016-12-07T06:35:30.239Z,0.07
2016-12-07T06:36:30.565Z,0.16
2016-12-07T06:37:29.948Z,0.18
2016-12-07T06:38:29.972Z,0.21
2016-12-07T06:39:29.983Z,0.07
2016-12-07T06:40:30.288Z,0.01
2016-12-07T06:41:30.300Z,-0.21
2016-12-07T06:42:30.314Z,-0.31
2016-12-07T06:43:30.319Z,-0.32
2016-12-07T06:44:30.645Z,-0.23
2016-12-07T06:45:30.667Z,-0.14
2016-12-07T06:46:30.352Z,0.01
2016-12-07T06:47:30.384Z,0
2016-12-07T06:48:30.055Z,-0.11
2016-12-07T06:49:30.377Z,-0.11
2016-12-07T06:50:30.387Z,-0.06
2016-12-07T06:51:30.081Z,0.03
2016-12-07T06:52:30.735Z,0.01
2016-12-07T06:53:30.112Z,-0.07
2016-12-07T06:54:30.126Z,-0.06
2016-12-07T06:55:30.437Z,-0.08
2016-12-07T06:56:30.450Z,0.04
2016-12-07T06:57:30.469Z,-0.03
2016-12-07T06:58:30.471Z,0.07
2016-12-07T06:59:30.483Z,0.01
2016-12-07T07:00:30.494Z,-0.07
2016-12-07T07:01:30.191Z,0.19
2016-12-07T07:02:30.512Z,0.23
2016-12-07T07:03:30.202Z,0.21
2016-12-07T07:04:30.840Z,0.12
2016-12-07T07:05:30.542Z,0.16
2016-12-07T07:06:30.231Z,0.08
2016-12-07T07:07:30.901Z,0.12
2016-12-07T07:08:30.881Z,0.12
2016-12-07T07:09:30.575Z,0.25
2016-12-07T07:10:30.584Z,0.25
2016-12-07T07:11:30.279Z,0.32
2016-12-07T07:12:30.919Z,0.26
2016-12-07T07:13:30.615Z,0.21
2016-12-07T07:14:30.309Z,0.29
2016-12-07T07:15:30.644Z,0.25
2016-12-07T07:16:30.643Z,0.25
2016-12-07T07:17:30.663Z,0.28
2016-12-07T07:18:30.664Z,0.31
2016-12-07T07:19:30.672Z,0.31
2016-12-07T07:20:30.375Z,0.37
2016-12-07T07:21:30.379Z,0.4
2016-12-07T07:22:31.019Z,0.46
2016-12-07T07:23:30.399Z,0.39
2016-12-07T07:24:30.407Z,0.4
2016-12-07T07:25:30.735Z,0.4
2016-12-07T07:26:31.062Z,0.39
2016-12-07T07:27:30.438Z,0.36
2016-12-07T07:28:30.766Z,0.41
2016-12-07T07:29:30.773Z,0.26
2016-12-07T07:30:30.470Z,0.26
2016-12-07T07:31:30.792Z,0.31
2016-12-07T07:32:31.120Z,0.41
2016-12-07T07:33:30.814Z,0.5
2016-12-07T07:34:30.824Z,0.41
2016-12-07T07:35:30.835Z,0.39
2016-12-07T07:36:30.531Z,0.52
2016-12-07T07:37:31.172Z,0.49
2016-12-07T07:38:30.864Z,0.58
2016-12-07T07:39:31.199Z,0.49
2016-12-07T07:40:30.884Z,0.37
2016-12-07T07:41:30.901Z,0.28
2016-12-07T07:42:30.906Z,0.22
2016-12-07T07:43:31.232Z,0.31
2016-12-07T07:44:31.241Z,0.31
2016-12-07T07:45:30.934Z,0.34
2016-12-07T07:46:31.259Z,0.29
2016-12-07T07:47:30.963Z,0.28
2016-12-07T07:48:30.649Z,0.29
2016-12-07T07:49:30.979Z,0.29
2016-12-07T07:50:30.673Z,0.23
2016-12-07T07:51:31.314Z,0.43
2016-12-07T07:52:31.014Z,0.34
2016-12-07T07:53:31.016Z,0.23
2016-12-07T07:54:31.342Z,0.25
2016-12-07T07:55:30.726Z,0.39
2016-12-07T07:56:30.730Z,0.5
2016-12-07T07:57:31.063Z,0.46
2016-12-07T07:58:31.069Z,0.63
2016-12-07T07:59:31.075Z,0.7
2016-12-07T08:00:31.111Z,0.73
2016-12-07T08:01:31.419Z,0.69
2016-12-07T08:02:31.428Z,0.73
2016-12-07T08:03:31.436Z,0.76
2016-12-07T08:04:31.129Z,0.63
2016-12-07T08:05:31.461Z,0.63
2016-12-07T08:06:31.150Z,0.65
2016-12-07T08:07:31.191Z,0.68
2016-12-07T08:08:30.859Z,0.68
2016-12-07T08:09:31.181Z,0.66
2016-12-07T08:10:31.188Z,0.59
2016-12-07T08:11:30.886Z,0.69
2016-12-07T08:12:31.218Z,0.52
2016-12-07T08:13:31.223Z,0.37
2016-12-07T08:14:30.917Z,0.29
2016-12-07T08:15:31.245Z,0.18
2016-12-07T08:16:31.568Z,0.25
2016-12-07T08:17:31.263Z,0.5
2016-12-07T08:18:31.273Z,0.58
2016-12-07T08:19:30.970Z,0.84
2016-12-07T08:20:31.297Z,0.76
2016-12-07T08:21:30.989Z,0.74
2016-12-07T08:22:31.317Z,0.83
2016-12-07T08:23:31.642Z,0.96
2016-12-07T08:24:31.019Z,0.92
2016-12-07T08:25:31.347Z,0.91
2016-12-07T08:26:31.672Z,0.92
2016-12-07T08:27:31.368Z,0.88
2016-12-07T08:28:31.060Z,0.94
2016-12-07T08:29:31.386Z,1.01
2016-12-07T08:30:31.087Z,1.08
2016-12-07T08:31:31.748Z,1.14
2016-12-07T08:32:31.418Z,1.12
2016-12-07T08:33:31.435Z,1.05
2016-12-07T08:34:31.123Z,1.05
2016-12-07T08:35:31.458Z,1.06
2016-12-07T08:36:31.463Z,1.04
2016-12-07T08:37:31.471Z,0.96
2016-12-07T08:38:31.173Z,0.94
2016-12-07T08:39:31.501Z,0.94
2016-12-07T08:40:31.198Z,1.06
2016-12-07T08:41:31.828Z,1.13
2016-12-07T08:42:31.525Z,1.1
2016-12-07T08:43:31.850Z,1.13
2016-12-07T08:44:31.549Z,1.26
2016-12-07T08:45:31.561Z,1.13
2016-12-07T08:46:31.565Z,0.94
2016-12-07T08:47:31.890Z,0.83
2016-12-07T08:48:31.901Z,0.86
2016-12-07T08:49:31.597Z,0.98
2016-12-07T08:50:31.918Z,0.91
2016-12-07T08:51:31.303Z,0.83
2016-12-07T08:52:31.313Z,0.96
2016-12-07T08:53:31.955Z,0.94
2016-12-07T08:54:31.649Z,0.63
2016-12-07T08:55:31.683Z,0.62
2016-12-07T08:56:31.671Z,0.74
2016-12-07T08:57:31.996Z,0.66
2016-12-07T08:58:31.689Z,0.81
2016-12-07T08:59:31.704Z,0.94
2016-12-07T09:00:32.027Z,1.01
2016-12-07T09:01:31.724Z,0.96
2016-12-07T09:02:31.426Z,0.99
2016-12-07T09:03:32.061Z,1.1
2016-12-07T09:04:32.072Z,1.13
2016-12-07T09:05:32.083Z,1.04
2016-12-07T09:06:31.458Z,1.06
2016-12-07T09:07:31.787Z,1.02
2016-12-07T09:08:31.480Z,1.01
2016-12-07T09:09:31.492Z,1.16
2016-12-07T09:10:31.504Z,1.45
2016-12-07T09:11:32.146Z,1.94
2016-12-07T09:12:31.527Z,2.43
2016-12-07T09:13:31.847Z,2.71
2016-12-07T09:14:31.891Z,2.64
2016-12-07T09:15:31.560Z,2.69
2016-12-07T09:16:31.570Z,2.87
2016-12-07T09:17:32.210Z,2.65
2016-12-07T09:18:31.908Z,2.69
2016-12-07T09:19:32.235Z,3.01
2016-12-07T09:20:31.943Z,3.05
2016-12-07T09:21:31.981Z,3.36
2016-12-07T09:22:32.273Z,3.6
2016-12-07T09:23:32.286Z,3.8
2016-12-07T09:24:31.663Z,3.87
2016-12-07T09:25:32.304Z,3.91
2016-12-07T09:26:32.010Z,4.05
2016-12-07T09:27:32.022Z,4.3
2016-12-07T09:28:32.030Z,4.62
2016-12-07T09:29:32.044Z,4.73
2016-12-07T09:30:31.742Z,5.04
2016-12-07T09:31:31.756Z,5.26
2016-12-07T09:32:32.087Z,5.41
2016-12-07T09:33:32.096Z,5.26
2016-12-07T09:34:32.434Z,5.33
2016-12-07T09:35:31.813Z,5.1
2016-12-07T09:36:32.136Z,5.3
2016-12-07T09:37:31.839Z,5.54
2016-12-07T09:38:32.166Z,5.65
2016-12-07T09:39:32.182Z,5.86
2016-12-07T09:40:32.202Z,5.99
2016-12-07T09:41:31.895Z,6.17
2016-12-07T09:42:32.548Z,6.31
2016-12-07T09:43:32.245Z,6.42
2016-12-07T09:44:32.254Z,6.52
2016-12-07T09:45:31.955Z,6.66
2016-12-07T09:46:31.969Z,6.66
2016-12-07T09:47:32.306Z,6.27
2016-12-07T09:48:32.005Z,6.44
2016-12-07T09:49:32.647Z,6.64
2016-12-07T09:50:32.368Z,6.72
2016-12-07T09:51:32.080Z,6.92
2016-12-07T09:52:32.695Z,6.89
2016-12-07T09:53:32.395Z,6.46
2016-12-07T09:54:32.720Z,6.14
2016-12-07T09:55:32.429Z,6.16
2016-12-07T09:56:32.768Z,6.04
2016-12-07T09:57:32.454Z,5.94
2016-12-07T09:58:32.478Z,5.84
2016-12-07T09:59:32.485Z,5.99
2016-12-07T10:00:32.501Z,6.41
2016-12-07T10:01:32.528Z,6.44
2016-12-07T10:02:32.541Z,6.12
2016-12-07T10:03:32.864Z,6.16
2016-12-07T10:04:32.926Z,6.19
2016-12-07T10:05:32.276Z,6.04
2016-12-07T10:06:32.916Z,5.97
2016-12-07T10:07:32.615Z,6.14
2016-12-07T10:08:32.628Z,6.04
2016-12-07T10:09:32.642Z,6.04
2016-12-07T10:10:32.652Z,6.17
2016-12-07T10:11:33.065Z,6.02
2016-12-07T10:12:33.004Z,6.48
2016-12-07T10:13:32.703Z,6.56
2016-12-07T10:14:32.405Z,6.48
2016-12-07T10:15:32.738Z,6.33
2016-12-07T10:16:32.753Z,6.24
2016-12-07T10:17:32.451Z,6.28
2016-12-07T10:18:32.782Z,6.09
2016-12-07T10:19:32.486Z,6.09
2016-12-07T10:20:32.808Z,5.99
2016-12-07T10:21:32.828Z,5.94
2016-12-07T10:22:32.526Z,5.65
2016-12-07T10:23:32.544Z,5.66
2016-12-07T10:24:32.874Z,5.64
2016-12-07T10:25:32.886Z,5.97
2016-12-07T10:26:32.618Z,6.07
2016-12-07T10:27:32.600Z,6.12
2016-12-07T10:28:33.246Z,5.99
2016-12-07T10:29:33.272Z,5.91
2016-12-07T10:30:32.964Z,6.09
2016-12-07T10:31:32.666Z,6.11
2016-12-07T10:32:33.010Z,5.9
2016-12-07T10:33:33.327Z,5.9
2016-12-07T10:34:32.709Z,6.01
2016-12-07T10:35:33.354Z,5.97
2016-12-07T10:36:32.736Z,5.99
2016-12-07T10:37:33.072Z,6.01
2016-12-07T10:38:33.399Z,6.12
2016-12-07T10:39:33.099Z,6.05
2016-12-07T10:40:33.122Z,6.26
2016-12-07T10:41:33.134Z,6.41
2016-12-07T10:42:33.150Z,6.44
2016-12-07T10:43:32.845Z,6.56
2016-12-07T10:44:33.180Z,6.26
2016-12-07T10:45:33.193Z,6.39
2016-12-07T10:46:33.213Z,6.72
2016-12-07T10:47:33.226Z,7.07
2016-12-07T10:48:33.556Z,6.97
2016-12-07T10:49:33.255Z,7.07
2016-12-07T10:50:32.961Z,6.67
2016-12-07T10:51:33.285Z,6.49
2016-12-07T10:52:32.990Z,6.63
2016-12-07T10:53:33.361Z,6.75
2016-12-07T10:54:33.020Z,6.54
2016-12-07T10:55:33.345Z,6.7
2016-12-07T10:56:33.404Z,7.15
2016-12-07T10:57:33.695Z,7.48
2016-12-07T10:58:33.423Z,7.9
2016-12-07T10:59:33.418Z,8.15
2016-12-07T11:00:33.114Z,8.12
2016-12-07T11:01:33.449Z,7.83
2016-12-07T11:02:33.467Z,7.38
2016-12-07T11:03:33.164Z,7.57
2016-12-07T11:04:33.177Z,7.58
2016-12-07T11:05:33.819Z,7.66
2016-12-07T11:06:33.242Z,8
2016-12-07T11:07:33.225Z,8.34
2016-12-07T11:08:33.555Z,8.3
2016-12-07T11:09:33.257Z,8.27
2016-12-07T11:10:33.907Z,8.13
2016-12-07T11:11:33.287Z,8.01
2016-12-07T11:12:33.305Z,7.94
2016-12-07T11:13:33.318Z,8.13
2016-12-07T11:14:33.369Z,8.23
2016-12-07T11:15:33.670Z,8.49
2016-12-07T11:16:33.685Z,8.61
2016-12-07T11:17:34.028Z,8.6
2016-12-07T11:18:33.718Z,8.95
2016-12-07T11:19:33.738Z,8.78
2016-12-07T11:20:33.438Z,8.88
2016-12-07T11:21:33.767Z,9.23
2016-12-07T11:22:33.783Z,9.34
2016-12-07T11:23:33.491Z,9.1
2016-12-07T11:24:34.138Z,9.29
2016-12-07T11:25:33.842Z,8.79
2016-12-07T11:26:33.541Z,8.76
2016-12-07T11:27:34.185Z,9.1
2016-12-07T11:28:33.575Z,9.48
2016-12-07T11:29:33.588Z,9.72
2016-12-07T11:30:33.923Z,9.51
2016-12-07T11:31:33.938Z,9.13
2016-12-07T11:32:34.293Z,9.02
2016-12-07T11:33:33.675Z,9.08
2016-12-07T11:34:33.990Z,9
2016-12-07T11:35:34.012Z,8.97
2016-12-07T11:36:34.023Z,8.81
2016-12-07T11:37:34.244Z,8.99
2016-12-07T11:38:33.742Z,9.29
2016-12-07T11:39:34.395Z,9.36
2016-12-07T11:40:34.090Z,9.66
2016-12-07T11:41:34.427Z,9.68
2016-12-07T11:42:34.130Z,9.51
2016-12-07T11:43:34.143Z,9.43
2016-12-07T11:44:33.844Z,9.72
2016-12-07T11:45:34.502Z,9.73
2016-12-07T11:46:34.193Z,9.39
2016-12-07T11:47:34.533Z,9.32
2016-12-07T11:48:33.915Z,9.56
2016-12-07T11:49:34.567Z,9.91
2016-12-07T11:50:34.265Z,10.01
2016-12-07T11:51:34.333Z,10.2
2016-12-07T11:52:34.304Z,9.99
2016-12-07T11:53:34.315Z,9.62
2016-12-07T11:54:34.341Z,9.54
2016-12-07T11:55:34.358Z,9.65
2016-12-07T11:56:34.366Z,9.83
2016-12-07T11:57:34.717Z,10.13
2016-12-07T11:58:34.413Z,9.8
2016-12-07T11:59:34.423Z,9.99
2016-12-07T12:00:34.444Z,10.16
2016-12-07T12:01:34.462Z,10.34
2016-12-07T12:02:34.162Z,10.64
2016-12-07T12:03:34.495Z,10.37
2016-12-07T12:04:34.825Z,10.31
2016-12-07T12:05:34.215Z,10.34
2016-12-07T12:06:34.558Z,9.99
2016-12-07T12:07:34.566Z,9.95
2016-12-07T12:08:34.921Z,9.61
2016-12-07T12:09:34.928Z,9.94
2016-12-07T12:10:34.305Z,10.2
2016-12-07T12:11:34.635Z,10.15
2016-12-07T12:12:34.340Z,10.15
2016-12-07T12:13:34.684Z,9.89
2016-12-07T12:14:34.690Z,9.84
2016-12-07T12:15:34.393Z,9.95
2016-12-07T12:16:34.418Z,10.01
2016-12-07T12:17:34.432Z,10.12
2016-12-07T12:18:35.076Z,10.2
2016-12-07T12:19:34.783Z,10.05
2016-12-07T12:20:35.115Z,10.09
2016-12-07T12:21:34.814Z,10.17
2016-12-07T12:22:34.835Z,10.12
2016-12-07T12:23:35.168Z,9.97
2016-12-07T12:24:34.871Z,10.17
2016-12-07T12:25:35.204Z,10.01
2016-12-07T12:26:34.600Z,9.87
2016-12-07T12:27:35.236Z,10.17
2016-12-07T12:28:34.937Z,10.26
2016-12-07T12:29:34.957Z,10.25
2016-12-07T12:30:35.294Z,10.33
2016-12-07T12:31:34.992Z,10.35
2016-12-07T12:32:35.030Z,10.25
2016-12-07T12:33:34.725Z,9.68
2016-12-07T12:34:35.047Z,9.61
2016-12-07T12:35:35.071Z,9.66
2016-12-07T12:36:35.397Z,10.09
2016-12-07T12:37:34.784Z,10.12
2016-12-07T12:38:35.116Z,10.07
2016-12-07T12:39:35.490Z,10.25
2016-12-07T12:40:35.156Z,10.25
2016-12-07T12:41:35.487Z,9.83
2016-12-07T12:42:35.191Z,9.83
2016-12-07T12:43:35.208Z,9.77
2016-12-07T12:44:35.232Z,9.46
2016-12-07T12:45:35.248Z,9.32
2016-12-07T12:46:35.263Z,9.18
2016-12-07T12:47:34.968Z,9.02
2016-12-07T12:48:34.985Z,9.04
2016-12-07T12:49:34.999Z,9.06
2016-12-07T12:50:35.333Z,9.18
2016-12-07T12:51:35.353Z,9.21
2016-12-07T12:52:35.054Z,9.4
2016-12-07T12:53:35.066Z,9.04
2016-12-07T12:54:35.085Z,9.1
2016-12-07T12:55:35.103Z,9.31
2016-12-07T12:56:35.437Z,9.4
2016-12-07T12:57:35.460Z,9.65
2016-12-07T12:58:35.792Z,9.82
2016-12-07T12:59:35.488Z,10.01
2016-12-07T13:00:35.835Z,9.91
2016-12-07T13:01:35.542Z,9.87
2016-12-07T13:02:35.224Z,9.84
2016-12-07T13:03:35.563Z,9.72
2016-12-07T13:04:35.265Z,9.76
2016-12-07T13:05:35.597Z,9.43
2016-12-07T13:06:35.296Z,9.51
2016-12-07T13:07:35.315Z,9.66
2016-12-07T13:08:35.648Z,9.83
2016-12-07T13:09:35.671Z,9.84
2016-12-07T13:10:35.372Z,9.83
2016-12-07T13:11:35.697Z,9.87
2016-12-07T13:12:35.408Z,9.74
2016-12-07T13:13:35.754Z,9.54
2016-12-07T13:14:36.094Z,9.4
2016-12-07T13:15:35.769Z,9.4
2016-12-07T13:16:35.490Z,9.8
2016-12-07T13:17:36.120Z,9.89
2016-12-07T13:18:35.825Z,9.8
2016-12-07T13:19:35.839Z,10.02